Bea Schulte — VRGA2 — position and weather

sailwx.info

Track history (hours):
 
Tides and Currents Weather Stations Pressure Air Temp Water Temp Dewpoint Dewpoint Depression Visibility Wind Speed Wind Dir Waves Ship Positions

Bea Schulte

Last reported at 2016-May-30 02:28 UTC. Time now 2016-May-31 16:07 UTC.
Position N 40°28' W 073°52'.

Length 264 m; draft 8.2 m.

Type: Cargo ship. MMSI: 477639500.

Date/timePositionNaut miles runAvg speedWind from/ knotsBaromVisibWave heightAir tempDewpointWater temp
2016-May-30 02:28N 40°28' W 073°52'1213.4
2016-May-30 01:33N 40°37' W 074°03'0 0.2
2016-May-30 00:33N 40°37' W 074°03'0 0.0
2016-May-29 23:33N 40°37' W 074°03'0 0.0
2016-May-29 22:33N 40°37' W 074°03'0 0.2
2016-May-29 21:18N 40°37' W 074°03'0 0.0
2016-May-29 19:33N 40°37' W 074°03'0 0.0
2016-May-29 18:33N 40°37' W 074°03'0 0.0
2016-May-29 17:30N 40°37' W 074°03'0 0.0
2016-May-29 16:33N 40°37' W 074°03'0 0.2
2016-May-29 15:30N 40°37' W 074°03'0 0.1
2016-May-29 14:21N 40°37' W 074°03'0 0.1
2016-May-29 13:33N 40°37' W 074°03'0 0.0
2016-May-29 12:30N 40°37' W 074°03'0 0.0
2016-May-29 11:33N 40°37' W 074°03'0 0.0
2016-May-29 09:33N 40°37' W 074°03'0 0.2
2016-May-29 08:24N 40°37' W 074°03'0 0.0
2016-May-29 07:12N 40°37' W 074°03'0 0.0
2016-May-29 06:33N 40°37' W 074°03'0 0.0
2016-May-29 05:27N 40°37' W 074°03'0 0.0
2016-May-29 04:33N 40°37' W 074°03'0 0.1
2016-May-29 03:33N 40°37' W 074°03'3 3.3
2016-May-29 02:32N 40°40' W 074°05'0 0.0
2016-May-29 01:32N 40°40' W 074°05'0 0.0
2016-May-29 00:32N 40°40' W 074°05'0 0.0
2016-May-28 23:32N 40°40' W 074°05'0 0.0
2016-May-28 22:32N 40°40' W 074°05'0 0.0
2016-May-28 21:32N 40°40' W 074°05'0 0.0
2016-May-28 20:32N 40°40' W 074°05'0 0.0
2016-May-28 19:33N 40°40' W 074°05'0 0.0
2016-May-28 18:33N 40°40' W 074°05'0 0.0
2016-May-28 17:33N 40°40' W 074°05'0 0.0
2016-May-28 16:33N 40°40' W 074°05'0 0.0
2016-May-28 15:33N 40°40' W 074°05'1 1.4
2016-May-28 14:33N 40°40' W 074°03'10 9.8
2016-May-28 13:34N 40°31' W 073°58'10 9.7
2016-May-28 12:32N 40°25' W 073°48'3411.0
2016-May-28 09:27N 39°51' W 073°42'1312.8
2016-May-28 08:25N 39°38' W 073°45'1213.4
2016-May-28 07:33N 39°28' W 073°52'1313.2
2016-May-28 06:33N 39°16' W 073°59'1313.4
2016-May-28 05:33N 39°04' W 074°06'1313.4
2016-May-28 04:33N 38°52' W 074°14'1312.9
2016-May-28 03:33N 38°40' W 074°21'1512.9
2016-May-28 02:25N 38°26' W 074°29'1112.9
2016-May-28 01:31N 38°16' W 074°35'10312.7
2016-May-27 17:22N 36°49' W 075°45'1113.2
2016-May-27 16:33N 36°55' W 075°56'1313.0
2016-May-27 15:33N 37°05' W 076°06'4915.2
2016-May-27 12:21N 37°54' W 076°10'1316.3
2016-May-27 11:33N 38°06' W 076°13'3115.5
2016-May-27 09:33N 38°35' W 076°26'1615.8
2016-May-27 08:34N 38°51' W 076°24'1514.5
2016-May-27 07:33N 39°06' W 076°24'1111.3
2016-May-27 06:33N 39°14' W 076°33'1 0.9
2016-May-27 05:32N 39°15' W 076°33'0 0.0
2016-May-27 04:32N 39°15' W 076°33'0 0.0
2016-May-27 03:29N 39°15' W 076°33'0 0.0
2016-May-27 02:29N 39°15' W 076°33'0 0.0
2016-May-27 01:32N 39°15' W 076°33'0 0.0
2016-May-27 00:32N 39°15' W 076°33'0 0.0
2016-May-26 23:32N 39°15' W 076°33'0 0.0
2016-May-26 22:29N 39°15' W 076°33'3 2.9
2016-May-26 21:33N 39°13' W 076°31'1111.3
2016-May-26 20:34N 39°03' W 076°23'1515.2
2016-May-26 19:33N 38°48' W 076°25'6515.6
2016-May-26 15:23N 37°44' W 076°11'1415.5
2016-May-26 14:28N 37°31' W 076°02'1415.2
2016-May-26 13:34N 37°18' W 076°06'1514.7
2016-May-26 12:32N 37°03' W 076°05'1313.4
2016-May-26 11:33N 36°54' W 075°53'1313.2
2016-May-26 10:33N 36°45' W 075°41'14011.7
2016-May-25 22:34N 34°25' W 075°55'2019.7
2016-May-25 21:34N 34°13' W 076°14'2119.3
2016-May-25 20:30N 34°02' W 076°35'1819.1
2016-May-25 19:33N 33°51' W 076°51'2819.1
2016-May-25 18:06N 33°33' W 077°17'1019.2
2016-May-25 17:33N 33°26' W 077°27'420 9.6
2016-May-23 21:33N 26°43' W 079°45'2322.9
2016-May-23 20:33N 26°22' W 079°54'1918.9
2016-May-23 19:33N 26°06' W 080°05'2 2.0
2016-May-23 18:24N 26°04' W 080°07'0 0.0
2016-May-23 17:24N 26°04' W 080°07'0 0.0
2016-May-23 16:24N 26°04' W 080°07'0 0.0
2016-May-23 15:27N 26°04' W 080°07'0 0.0
2016-May-23 14:30N 26°04' W 080°07'0 0.0
2016-May-23 13:15N 26°04' W 080°07'0 0.0
2016-May-23 12:30N 26°04' W 080°07'0 0.0
2016-May-23 11:30N 26°04' W 080°07'0 0.0
2016-May-23 10:22N 26°04' W 080°07'2 2.5
2016-May-23 09:33N 26°06' W 080°05'6 6.5
2016-May-23 08:34N 26°01' W 080°01'1515.4
2016-May-23 07:33N 25°46' W 079°57'  
Track history (hours):
 
Tides and Currents Weather Stations Pressure Air Temp Water Temp Dewpoint Dewpoint Depression Visibility Wind Speed Wind Dir Waves Ship Positions

Bea Schulte

Last reported at 2016-May-30 02:28 UTC. Time now 2016-May-31 16:07 UTC.
Position N 40°28' W 073°52'.

Length 264 m; draft 8.2 m.

Type: Cargo ship. MMSI: 477639500.

Date/timePositionNaut miles runAvg speedWind from/ knotsBaromVisibWave heightAir tempDewpointWater temp
2016-May-30 02:28N 40°28' W 073°52'1213.4
2016-May-30 01:33N 40°37' W 074°03'0 0.2
2016-May-30 00:33N 40°37' W 074°03'0 0.0
2016-May-29 23:33N 40°37' W 074°03'0 0.0
2016-May-29 22:33N 40°37' W 074°03'0 0.2
2016-May-29 21:18N 40°37' W 074°03'0 0.0
2016-May-29 19:33N 40°37' W 074°03'0 0.0
2016-May-29 18:33N 40°37' W 074°03'0 0.0
2016-May-29 17:30N 40°37' W 074°03'0 0.0
2016-May-29 16:33N 40°37' W 074°03'0 0.2
2016-May-29 15:30N 40°37' W 074°03'0 0.1
2016-May-29 14:21N 40°37' W 074°03'0 0.1
2016-May-29 13:33N 40°37' W 074°03'0 0.0
2016-May-29 12:30N 40°37' W 074°03'0 0.0
2016-May-29 11:33N 40°37' W 074°03'0 0.0
2016-May-29 09:33N 40°37' W 074°03'0 0.2
2016-May-29 08:24N 40°37' W 074°03'0 0.0
2016-May-29 07:12N 40°37' W 074°03'0 0.0
2016-May-29 06:33N 40°37' W 074°03'0 0.0
2016-May-29 05:27N 40°37' W 074°03'0 0.0
2016-May-29 04:33N 40°37' W 074°03'0 0.1
2016-May-29 03:33N 40°37' W 074°03'3 3.3
2016-May-29 02:32N 40°40' W 074°05'0 0.0
2016-May-29 01:32N 40°40' W 074°05'0 0.0
2016-May-29 00:32N 40°40' W 074°05'0 0.0
2016-May-28 23:32N 40°40' W 074°05'0 0.0
2016-May-28 22:32N 40°40' W 074°05'0 0.0
2016-May-28 21:32N 40°40' W 074°05'0 0.0
2016-May-28 20:32N 40°40' W 074°05'0 0.0
2016-May-28 19:33N 40°40' W 074°05'0 0.0
2016-May-28 18:33N 40°40' W 074°05'0 0.0
2016-May-28 17:33N 40°40' W 074°05'0 0.0
2016-May-28 16:33N 40°40' W 074°05'0 0.0
2016-May-28 15:33N 40°40' W 074°05'1 1.4
2016-May-28 14:33N 40°40' W 074°03'10 9.8
2016-May-28 13:34N 40°31' W 073°58'10 9.7
2016-May-28 12:32N 40°25' W 073°48'3411.0
2016-May-28 09:27N 39°51' W 073°42'1312.8
2016-May-28 08:25N 39°38' W 073°45'1213.4
2016-May-28 07:33N 39°28' W 073°52'1313.2
2016-May-28 06:33N 39°16' W 073°59'1313.4
2016-May-28 05:33N 39°04' W 074°06'1313.4
2016-May-28 04:33N 38°52' W 074°14'1312.9
2016-May-28 03:33N 38°40' W 074°21'1512.9
2016-May-28 02:25N 38°26' W 074°29'1112.9
2016-May-28 01:31N 38°16' W 074°35'10312.7
2016-May-27 17:22N 36°49' W 075°45'1113.2
2016-May-27 16:33N 36°55' W 075°56'1313.0
2016-May-27 15:33N 37°05' W 076°06'4915.2
2016-May-27 12:21N 37°54' W 076°10'1316.3
2016-May-27 11:33N 38°06' W 076°13'3115.5
2016-May-27 09:33N 38°35' W 076°26'1615.8
2016-May-27 08:34N 38°51' W 076°24'1514.5
2016-May-27 07:33N 39°06' W 076°24'1111.3
2016-May-27 06:33N 39°14' W 076°33'1 0.9
2016-May-27 05:32N 39°15' W 076°33'0 0.0
2016-May-27 04:32N 39°15' W 076°33'0 0.0
2016-May-27 03:29N 39°15' W 076°33'0 0.0
2016-May-27 02:29N 39°15' W 076°33'0 0.0
2016-May-27 01:32N 39°15' W 076°33'0 0.0
2016-May-27 00:32N 39°15' W 076°33'0 0.0
2016-May-26 23:32N 39°15' W 076°33'0 0.0
2016-May-26 22:29N 39°15' W 076°33'3 2.9
2016-May-26 21:33N 39°13' W 076°31'1111.3
2016-May-26 20:34N 39°03' W 076°23'1515.2
2016-May-26 19:33N 38°48' W 076°25'6515.6
2016-May-26 15:23N 37°44' W 076°11'1415.5
2016-May-26 14:28N 37°31' W 076°02'1415.2
2016-May-26 13:34N 37°18' W 076°06'1514.7
2016-May-26 12:32N 37°03' W 076°05'1313.4
2016-May-26 11:33N 36°54' W 075°53'1313.2
2016-May-26 10:33N 36°45' W 075°41'14011.7
2016-May-25 22:34N 34°25' W 075°55'2019.7
2016-May-25 21:34N 34°13' W 076°14'2119.3
2016-May-25 20:30N 34°02' W 076°35'1819.1
2016-May-25 19:33N 33°51' W 076°51'2819.1
2016-May-25 18:06N 33°33' W 077°17'1019.2
2016-May-25 17:33N 33°26' W 077°27'420 9.6
2016-May-23 21:33N 26°43' W 079°45'2322.9
2016-May-23 20:33N 26°22' W 079°54'1918.9
2016-May-23 19:33N 26°06' W 080°05'2 2.0
2016-May-23 18:24N 26°04' W 080°07'0 0.0
2016-May-23 17:24N 26°04' W 080°07'0 0.0
2016-May-23 16:24N 26°04' W 080°07'0 0.0
2016-May-23 15:27N 26°04' W 080°07'0 0.0
2016-May-23 14:30N 26°04' W 080°07'0 0.0
2016-May-23 13:15N 26°04' W 080°07'0 0.0
2016-May-23 12:30N 26°04' W 080°07'0 0.0
2016-May-23 11:30N 26°04' W 080°07'0 0.0
2016-May-23 10:22N 26°04' W 080°07'2 2.5
2016-May-23 09:33N 26°06' W 080°05'6 6.5
2016-May-23 08:34N 26°01' W 080°01'1515.4
2016-May-23 07:33N 25°46' W 079°57'  

Dump ship's entire track history